createdAt,value
2018-07-16T00:00:25.367Z,17.70
2018-07-16T00:02:54.241Z,17.70
2018-07-16T00:05:23.141Z,17.70
2018-07-16T00:07:52.002Z,17.80
2018-07-16T00:10:20.909Z,17.80
2018-07-16T00:12:49.781Z,17.80
2018-07-16T00:15:18.674Z,17.80
2018-07-16T00:17:47.526Z,17.80
2018-07-16T00:20:16.372Z,17.80
2018-07-16T00:22:45.201Z,17.80
2018-07-16T00:25:14.064Z,17.70
2018-07-16T00:27:42.925Z,17.80
2018-07-16T00:30:11.821Z,17.90
2018-07-16T00:32:40.734Z,17.80
2018-07-16T00:35:09.554Z,17.80
2018-07-16T00:37:38.518Z,17.80
2018-07-16T00:40:07.321Z,17.80
2018-07-16T00:42:36.160Z,17.70
2018-07-16T00:45:05.009Z,17.70
2018-07-16T00:47:33.885Z,17.70
2018-07-16T00:50:02.727Z,17.70
2018-07-16T00:52:31.581Z,17.70
2018-07-16T00:55:00.445Z,17.70
2018-07-16T00:57:29.300Z,17.70
2018-07-16T00:59:58.148Z,17.70
2018-07-16T01:02:27.009Z,17.70
2018-07-16T01:04:55.845Z,17.70
2018-07-16T01:07:24.722Z,17.70
2018-07-16T01:09:53.565Z,17.70
2018-07-16T01:12:22.437Z,17.70
2018-07-16T01:14:51.294Z,17.70
2018-07-16T01:17:20.145Z,17.70
2018-07-16T01:19:49.021Z,17.70
2018-07-16T01:22:17.862Z,17.70
2018-07-16T01:24:46.715Z,17.70
2018-07-16T01:27:15.552Z,17.70
2018-07-16T01:29:44.433Z,17.70
2018-07-16T01:32:13.300Z,17.60
2018-07-16T01:34:42.139Z,17.60
2018-07-16T01:37:10.983Z,17.70
2018-07-16T01:39:39.850Z,17.60
2018-07-16T01:42:08.705Z,17.60
2018-07-16T01:44:37.578Z,17.60
2018-07-16T01:47:06.440Z,17.60
2018-07-16T01:49:35.328Z,17.70
2018-07-16T01:52:04.181Z,17.70
2018-07-16T01:54:33.010Z,17.60
2018-07-16T01:57:01.858Z,17.60
2018-07-16T01:59:30.696Z,17.60
2018-07-16T02:04:28.122Z,17.50
2018-07-16T02:06:56.969Z,17.50
2018-07-16T02:09:26.061Z,17.50
2018-07-16T02:11:54.899Z,17.50
2018-07-16T02:14:23.744Z,17.50
2018-07-16T02:16:52.612Z,17.50
2018-07-16T02:19:21.457Z,17.50
2018-07-16T02:21:50.313Z,17.50
2018-07-16T02:24:19.149Z,17.50
2018-07-16T02:26:48.030Z,17.50
2018-07-16T02:29:16.865Z,17.40
2018-07-16T02:31:45.731Z,17.30
2018-07-16T02:34:14.657Z,17.20
2018-07-16T02:36:43.490Z,17.20
2018-07-16T02:39:12.341Z,17.10
2018-07-16T02:41:41.192Z,17.10
2018-07-16T02:44:10.049Z,17.10
2018-07-16T02:46:38.891Z,17.10
2018-07-16T02:49:07.773Z,17.10
2018-07-16T02:51:36.697Z,17.10
2018-07-16T02:54:05.548Z,17.00
2018-07-16T02:56:34.489Z,16.90
2018-07-16T02:59:03.332Z,17.00
2018-07-16T03:01:32.199Z,17.00
2018-07-16T03:04:01.044Z,16.90
2018-07-16T03:06:29.887Z,16.90
2018-07-16T03:08:58.790Z,16.80
2018-07-16T03:11:27.656Z,16.90
2018-07-16T03:13:56.498Z,16.80
2018-07-16T03:16:25.373Z,16.80
2018-07-16T03:18:54.217Z,16.70
2018-07-16T03:21:23.109Z,16.70
2018-07-16T03:23:51.976Z,16.60
2018-07-16T03:26:20.797Z,16.60
2018-07-16T03:28:49.646Z,16.50
2018-07-16T03:31:18.498Z,16.50
2018-07-16T03:33:47.401Z,16.50
2018-07-16T03:36:16.307Z,16.50
2018-07-16T03:38:45.280Z,16.40
2018-07-16T03:41:14.146Z,16.40
2018-07-16T03:43:43.017Z,16.40
2018-07-16T03:46:11.893Z,16.30
2018-07-16T03:48:40.725Z,16.30
2018-07-16T03:51:09.598Z,16.40
2018-07-16T03:53:38.491Z,16.40
2018-07-16T03:56:07.382Z,16.50
2018-07-16T03:58:36.214Z,16.50
2018-07-16T04:01:05.090Z,16.50
2018-07-16T04:03:33.964Z,16.40
2018-07-16T04:06:02.808Z,16.40
2018-07-16T04:08:31.672Z,16.40
2018-07-16T04:11:00.521Z,16.40
2018-07-16T04:13:29.405Z,16.40
2018-07-16T04:15:58.249Z,16.40
2018-07-16T04:18:27.106Z,16.50
2018-07-16T04:20:55.968Z,16.50
2018-07-16T04:23:24.826Z,16.60
2018-07-16T04:25:53.716Z,16.60
2018-07-16T04:28:22.570Z,16.60
2018-07-16T04:30:51.562Z,16.70
2018-07-16T04:33:20.345Z,16.70
2018-07-16T04:35:49.209Z,16.70
2018-07-16T04:38:18.062Z,16.70
2018-07-16T04:40:46.901Z,16.70
2018-07-16T04:43:15.764Z,16.80
2018-07-16T04:45:44.804Z,16.80
2018-07-16T04:48:13.645Z,17.00
2018-07-16T04:50:42.500Z,17.20
2018-07-16T04:53:11.345Z,17.30
2018-07-16T04:58:08.781Z,17.50
2018-07-16T05:00:37.642Z,17.70
2018-07-16T05:03:06.572Z,17.70
2018-07-16T05:05:35.358Z,17.80
2018-07-16T05:08:04.368Z,17.90
2018-07-16T05:10:33.210Z,18.10
2018-07-16T05:13:02.085Z,18.30
2018-07-16T05:15:30.977Z,18.80
2018-07-16T05:17:59.874Z,19.10
2018-07-16T05:20:28.713Z,19.20
2018-07-16T05:22:57.695Z,19.80
2018-07-16T05:25:26.542Z,20.80
2018-07-16T05:27:55.487Z,20.50
2018-07-16T05:30:24.330Z,20.40
2018-07-16T05:32:53.271Z,19.60
2018-07-16T05:35:22.453Z,19.10
2018-07-16T05:37:51.376Z,18.70
2018-07-16T05:40:20.249Z,18.50
2018-07-16T05:42:49.049Z,18.30
2018-07-16T05:45:17.938Z,18.10
2018-07-16T05:47:46.804Z,18.10
2018-07-16T05:50:15.658Z,18.20
2018-07-16T05:52:44.561Z,18.20
2018-07-16T05:55:13.391Z,18.20
2018-07-16T05:57:42.396Z,18.20
2018-07-16T06:00:11.279Z,18.20
2018-07-16T06:02:40.170Z,18.40
2018-07-16T06:05:09.006Z,18.60
2018-07-16T06:07:37.857Z,18.80
2018-07-16T06:10:06.695Z,18.80
2018-07-16T06:12:35.581Z,18.80
2018-07-16T06:15:04.428Z,19.20
2018-07-16T06:17:33.494Z,19.60
2018-07-16T06:20:02.365Z,19.50
2018-07-16T06:22:31.210Z,19.30
2018-07-16T06:25:00.127Z,19.40
2018-07-16T06:27:28.985Z,19.60
2018-07-16T06:29:57.892Z,19.50
2018-07-16T06:32:26.773Z,19.50
2018-07-16T06:34:55.608Z,19.40
2018-07-16T06:37:24.482Z,19.10
2018-07-16T06:39:53.368Z,19.20
2018-07-16T06:42:22.193Z,19.00
2018-07-16T06:44:51.128Z,19.30
2018-07-16T06:47:20.031Z,19.70
2018-07-16T06:49:48.944Z,20.20
2018-07-16T06:52:17.801Z,20.40
2018-07-16T06:57:15.232Z,20.90
2018-07-16T06:59:44.121Z,21.40
2018-07-16T07:02:13.161Z,21.90
2018-07-16T07:04:41.961Z,23.10
2018-07-16T07:07:10.944Z,22.90
2018-07-16T07:09:39.764Z,22.60
2018-07-16T07:12:08.638Z,22.10
2018-07-16T07:14:37.517Z,22.10
2018-07-16T07:17:06.399Z,22.30
2018-07-16T07:19:35.361Z,22.30
2018-07-16T07:22:04.268Z,22.10
2018-07-16T07:24:33.306Z,22.60
2018-07-16T07:27:02.172Z,22.90
2018-07-16T07:29:31.096Z,23.10
2018-07-16T07:32:00.168Z,23.10
2018-07-16T07:34:29.041Z,23.50
2018-07-16T07:36:57.926Z,24.00
2018-07-16T07:39:26.937Z,23.30
2018-07-16T07:41:55.785Z,23.00
2018-07-16T07:44:24.646Z,23.20
2018-07-16T07:46:53.493Z,23.20
2018-07-16T07:49:22.391Z,23.60
2018-07-16T07:51:51.488Z,23.50
2018-07-16T07:54:20.465Z,23.50
2018-07-16T07:56:49.211Z,23.70
2018-07-16T07:59:18.098Z,23.90
2018-07-16T08:01:47.040Z,24.00
2018-07-16T08:04:15.882Z,24.60
2018-07-16T08:06:50.362Z,24.60
2018-07-16T08:09:19.217Z,24.50
2018-07-16T08:11:48.162Z,24.30
2018-07-16T08:14:17.055Z,23.70
2018-07-16T08:16:45.937Z,23.80
2018-07-16T08:19:14.794Z,23.90
2018-07-16T08:21:43.713Z,23.50
2018-07-16T08:24:12.675Z,23.80
2018-07-16T08:26:41.594Z,23.90
2018-07-16T08:29:10.410Z,23.60
2018-07-16T08:31:39.312Z,23.50
2018-07-16T08:34:08.306Z,23.60
2018-07-16T08:36:37.198Z,23.60
2018-07-16T08:39:06.526Z,23.50
2018-07-16T08:44:04.166Z,24.60
2018-07-16T08:46:33.158Z,26.70
2018-07-16T08:49:02.158Z,28.60
2018-07-16T08:51:31.341Z,28.20
2018-07-16T08:54:00.237Z,28.10
2018-07-16T08:56:29.140Z,27.70
2018-07-16T08:58:57.997Z,27.00
2018-07-16T09:01:26.816Z,26.30
2018-07-16T09:03:55.701Z,27.10
2018-07-16T09:06:24.525Z,28.30
2018-07-16T09:08:53.409Z,28.30
2018-07-16T09:11:22.308Z,28.50
2018-07-16T09:13:51.104Z,28.70
2018-07-16T09:16:19.989Z,27.90
2018-07-16T09:18:48.890Z,27.60
2018-07-16T09:21:17.741Z,26.90
2018-07-16T09:23:46.666Z,25.80
2018-07-16T09:26:15.596Z,25.90
2018-07-16T09:28:44.486Z,26.30
2018-07-16T09:31:13.313Z,26.10
2018-07-16T09:33:42.149Z,27.40
2018-07-16T09:36:11.021Z,28.50
2018-07-16T09:38:39.873Z,28.60
2018-07-16T09:41:08.721Z,29.10
2018-07-16T09:43:37.580Z,29.00
2018-07-16T09:46:06.520Z,28.30
2018-07-16T09:48:35.308Z,27.20
2018-07-16T09:51:04.184Z,27.00
2018-07-16T09:53:33.016Z,27.70
2018-07-16T09:56:01.890Z,28.30
2018-07-16T09:58:30.706Z,28.70
2018-07-16T10:01:04.773Z,28.50
2018-07-16T10:03:33.621Z,28.50
2018-07-16T10:06:02.563Z,30.00
2018-07-16T10:08:31.454Z,30.40
2018-07-16T10:13:28.721Z,29.20
2018-07-16T10:15:57.563Z,28.20
2018-07-16T10:18:26.416Z,29.60
2018-07-16T10:20:55.244Z,29.50
2018-07-16T10:23:24.177Z,28.40
2018-07-16T10:25:53.042Z,27.20
2018-07-16T10:28:21.884Z,26.50
2018-07-16T10:30:50.800Z,26.00
2018-07-16T10:33:19.660Z,25.50
2018-07-16T10:35:48.498Z,25.30
2018-07-16T10:38:17.344Z,25.10
2018-07-16T10:40:46.201Z,25.10
2018-07-16T10:43:15.112Z,26.30
2018-07-16T10:45:44.004Z,27.20
2018-07-16T10:48:12.833Z,27.80
2018-07-16T10:50:41.717Z,27.60
2018-07-16T10:53:10.570Z,27.90
2018-07-16T10:55:39.413Z,28.30
2018-07-16T10:58:08.285Z,29.00
2018-07-16T11:00:37.153Z,28.30
2018-07-16T11:03:06.073Z,28.30
2018-07-16T11:05:35.058Z,27.80
2018-07-16T11:08:03.773Z,27.40
2018-07-16T11:10:32.641Z,28.30
2018-07-16T11:13:01.597Z,28.50
2018-07-16T11:15:30.512Z,27.80
2018-07-16T11:17:59.503Z,27.60
2018-07-16T11:20:28.364Z,27.90
2018-07-16T11:22:57.220Z,27.80
2018-07-16T11:25:26.086Z,28.10
2018-07-16T11:27:54.917Z,28.60
2018-07-16T11:30:23.765Z,28.50
2018-07-16T11:32:52.614Z,29.00
2018-07-16T11:35:21.535Z,28.30
2018-07-16T11:37:50.520Z,28.10
2018-07-16T11:40:19.394Z,27.70
2018-07-16T11:42:48.264Z,27.00
2018-07-16T11:45:17.127Z,26.70
2018-07-16T11:47:46.004Z,26.70
2018-07-16T11:50:14.881Z,26.70
2018-07-16T11:52:43.740Z,26.70
2018-07-16T11:55:12.625Z,27.00
2018-07-16T11:57:41.470Z,27.50
2018-07-16T12:00:10.322Z,28.00
2018-07-16T12:02:39.166Z,28.40
2018-07-16T12:05:08.054Z,28.00
2018-07-16T12:07:37.289Z,27.60
2018-07-16T12:10:06.084Z,27.60
2018-07-16T12:12:35.012Z,27.30
2018-07-16T12:15:03.952Z,26.90
2018-07-16T12:17:32.925Z,26.40
2018-07-16T12:20:01.785Z,26.20
2018-07-16T12:22:30.649Z,26.90
2018-07-16T12:24:59.522Z,27.10
2018-07-16T12:27:28.390Z,26.80
2018-07-16T12:29:57.277Z,27.00
2018-07-16T12:32:26.221Z,26.60
2018-07-16T12:34:55.009Z,26.70
2018-07-16T12:37:23.875Z,26.40
2018-07-16T12:39:52.745Z,25.80
2018-07-16T12:42:21.623Z,25.10
2018-07-16T12:44:50.513Z,24.90
2018-07-16T12:47:19.361Z,25.30
2018-07-16T12:52:23.337Z,26.80
2018-07-16T12:54:52.277Z,27.00
2018-07-16T12:57:21.088Z,26.90
2018-07-16T12:59:49.993Z,26.80
2018-07-16T13:02:18.877Z,26.50
2018-07-16T13:09:44.805Z,25.80
2018-07-16T13:12:13.602Z,25.80
2018-07-16T13:14:42.460Z,26.20
2018-07-16T13:17:11.541Z,26.70
2018-07-16T13:19:40.365Z,27.10
2018-07-16T13:22:09.254Z,26.40
2018-07-16T13:24:38.094Z,26.50
2018-07-16T13:27:06.941Z,27.00
2018-07-16T13:29:35.790Z,27.40
2018-07-16T13:32:04.625Z,27.50
2018-07-16T13:34:33.472Z,27.90
2018-07-16T13:37:02.331Z,28.30
2018-07-16T13:39:31.188Z,28.20
2018-07-16T13:42:00.025Z,27.90
2018-07-16T13:44:28.970Z,27.20
2018-07-16T13:46:57.815Z,27.60
2018-07-16T13:49:26.669Z,28.10
2018-07-16T13:51:55.497Z,28.30
2018-07-16T13:54:24.344Z,27.90
2018-07-16T13:56:53.221Z,27.70
2018-07-16T13:59:22.421Z,27.70
2018-07-16T14:01:51.312Z,27.20
2018-07-16T14:04:20.135Z,26.80
2018-07-16T14:06:48.977Z,26.90
2018-07-16T14:09:17.822Z,26.60
2018-07-16T14:11:46.666Z,26.20
2018-07-16T14:14:15.525Z,25.80
2018-07-16T14:16:44.374Z,25.70
2018-07-16T14:19:13.241Z,25.80
2018-07-16T14:21:42.093Z,26.10
2018-07-16T14:24:10.921Z,26.20
2018-07-16T14:26:39.762Z,26.20
2018-07-16T14:29:08.620Z,25.90
2018-07-16T14:31:37.444Z,25.70
2018-07-16T14:34:06.493Z,26.00
2018-07-16T14:36:35.274Z,26.30
2018-07-16T14:39:05.420Z,26.50
2018-07-16T14:41:34.241Z,26.90
2018-07-16T14:44:03.129Z,27.20
2018-07-16T14:46:31.953Z,26.90
2018-07-16T14:49:00.860Z,26.80
2018-07-16T14:51:29.667Z,26.70
2018-07-16T14:53:58.509Z,26.60
2018-07-16T14:56:27.350Z,26.40
2018-07-16T14:58:56.236Z,26.30
2018-07-16T15:01:25.153Z,26.30
2018-07-16T15:03:54.064Z,26.00
2018-07-16T15:06:22.925Z,25.90
2018-07-16T15:08:51.775Z,26.00
2018-07-16T15:11:20.676Z,26.00
2018-07-16T15:13:49.571Z,25.90
2018-07-16T15:16:18.418Z,25.80
2018-07-16T15:18:47.345Z,25.80
2018-07-16T15:21:16.536Z,25.80
2018-07-16T15:23:45.043Z,25.80
2018-07-16T15:26:13.880Z,26.00
2018-07-16T15:28:42.717Z,26.00
2018-07-16T15:33:40.081Z,26.10
2018-07-16T15:36:08.964Z,26.10
2018-07-16T15:38:37.811Z,26.00
2018-07-16T15:41:06.649Z,26.00
2018-07-16T15:46:04.194Z,26.20
2018-07-16T15:48:33.058Z,26.30
2018-07-16T15:53:30.413Z,26.20
2018-07-16T15:55:59.276Z,26.10
2018-07-16T15:58:28.124Z,26.00
2018-07-16T16:00:57.012Z,25.90
2018-07-16T16:03:25.952Z,26.00
2018-07-16T16:05:54.749Z,26.00
2018-07-16T16:08:23.600Z,25.90
2018-07-16T16:10:52.436Z,25.80
2018-07-16T16:13:21.412Z,25.80
2018-07-16T16:15:50.360Z,25.70
2018-07-16T16:20:47.817Z,25.60
2018-07-16T16:23:16.774Z,25.60
2018-07-16T16:25:45.508Z,25.60
2018-07-16T16:28:14.450Z,25.60
2018-07-16T16:30:43.268Z,25.50
2018-07-16T16:33:12.093Z,25.50
2018-07-16T16:35:40.986Z,25.70
2018-07-16T16:38:09.825Z,25.70
2018-07-16T16:40:38.704Z,25.60
2018-07-16T16:43:07.567Z,25.70
2018-07-16T16:45:36.434Z,25.60
2018-07-16T16:48:05.364Z,25.60
2018-07-16T16:50:34.233Z,25.60
2018-07-16T16:53:03.064Z,25.70
2018-07-16T16:55:31.949Z,25.70
2018-07-16T16:58:00.803Z,25.60
2018-07-16T17:00:29.640Z,25.40
2018-07-16T17:02:58.558Z,25.40
2018-07-16T17:05:27.441Z,25.30
2018-07-16T17:07:56.265Z,25.30
2018-07-16T17:10:25.116Z,25.20
2018-07-16T17:12:53.953Z,24.90
2018-07-16T17:15:22.797Z,24.80
2018-07-16T17:17:51.738Z,24.80
2018-07-16T17:20:20.598Z,24.90
2018-07-16T17:22:49.543Z,24.90
2018-07-16T17:25:18.386Z,24.90
2018-07-16T17:27:47.350Z,24.90
2018-07-16T17:30:16.184Z,24.90
2018-07-16T17:32:45.073Z,25.00
2018-07-16T17:35:13.925Z,24.90
2018-07-16T17:37:42.757Z,24.90
2018-07-16T17:40:11.625Z,24.90
2018-07-16T17:42:40.473Z,24.80
2018-07-16T17:45:09.466Z,24.80
2018-07-16T17:47:38.881Z,24.70
2018-07-16T17:50:07.768Z,24.60
2018-07-16T17:52:36.621Z,24.60
2018-07-16T17:55:05.609Z,24.50
2018-07-16T17:57:34.481Z,24.40
2018-07-16T18:00:03.426Z,24.40
2018-07-16T18:02:32.357Z,24.30
2018-07-16T18:05:01.215Z,24.20
2018-07-16T18:07:30.129Z,24.20
2018-07-16T18:09:58.970Z,24.10
2018-07-16T18:12:27.825Z,24.00
2018-07-16T18:14:56.709Z,23.90
2018-07-16T18:17:25.621Z,23.80
2018-07-16T18:19:54.550Z,23.70
2018-07-16T18:22:23.452Z,23.60
2018-07-16T18:24:52.277Z,23.50
2018-07-16T18:27:21.195Z,23.50
2018-07-16T18:29:50.056Z,23.40
2018-07-16T18:32:18.935Z,23.30
2018-07-16T18:34:47.781Z,23.30
2018-07-16T18:37:16.712Z,23.10
2018-07-16T18:39:45.574Z,23.00
2018-07-16T18:42:14.530Z,22.90
2018-07-16T18:44:43.380Z,22.90
2018-07-16T18:49:40.898Z,22.60
2018-07-16T18:52:09.990Z,22.60
2018-07-16T18:54:38.956Z,22.50
2018-07-16T18:57:07.805Z,22.50
2018-07-16T18:59:36.683Z,22.40
2018-07-16T19:02:05.551Z,22.40
2018-07-16T19:04:34.485Z,22.40
2018-07-16T19:07:04.343Z,22.40
2018-07-16T19:09:33.922Z,22.40
2018-07-16T19:14:31.737Z,22.50
2018-07-16T19:17:01.031Z,22.40
2018-07-16T19:21:58.655Z,22.20
2018-07-16T19:24:27.545Z,22.00
2018-07-16T19:26:56.418Z,21.90
2018-07-16T19:29:25.416Z,21.70
2018-07-16T19:31:54.289Z,21.60
2018-07-16T19:34:23.196Z,21.50
2018-07-16T19:36:52.119Z,21.40
2018-07-16T19:39:21.090Z,21.30
2018-07-16T19:41:50.106Z,21.30
2018-07-16T19:44:18.933Z,21.20
2018-07-16T19:46:47.815Z,21.10
2018-07-16T19:49:16.696Z,21.10
2018-07-16T19:51:45.714Z,20.90
2018-07-16T19:54:14.594Z,20.90
2018-07-16T19:56:43.487Z,20.80
2018-07-16T19:59:13.301Z,20.70
2018-07-16T20:01:42.268Z,20.50
2018-07-16T20:04:11.166Z,20.30
2018-07-16T20:06:39.975Z,20.10
2018-07-16T20:09:08.933Z,20.00
2018-07-16T20:11:37.725Z,19.80
2018-07-16T20:14:06.578Z,19.70
2018-07-16T20:16:39.221Z,19.70
2018-07-16T20:19:08.204Z,19.60
2018-07-16T20:21:36.945Z,19.60
2018-07-16T20:24:05.865Z,19.60
2018-07-16T20:26:34.712Z,19.80
2018-07-16T20:29:03.645Z,19.90
2018-07-16T20:31:32.475Z,19.80
2018-07-16T20:34:01.322Z,19.80
2018-07-16T20:36:30.457Z,19.90
2018-07-16T20:38:59.360Z,19.90
2018-07-16T20:41:28.240Z,19.90
2018-07-16T20:43:57.112Z,19.90
2018-07-16T20:46:26.032Z,19.80
2018-07-16T20:48:54.907Z,19.70
2018-07-16T20:51:23.737Z,19.60
2018-07-16T20:53:52.613Z,19.60
2018-07-16T20:56:21.510Z,19.40
2018-07-16T20:58:50.352Z,19.40
2018-07-16T21:01:19.228Z,19.30
2018-07-16T21:03:48.063Z,19.30
2018-07-16T21:06:16.953Z,19.40
2018-07-16T21:08:45.819Z,19.40
2018-07-16T21:11:14.691Z,19.50
2018-07-16T21:13:43.477Z,19.50
2018-07-16T21:16:13.408Z,19.70
2018-07-16T21:18:42.285Z,19.70
2018-07-16T21:21:11.177Z,19.90
2018-07-16T21:23:40.041Z,19.90
2018-07-16T21:26:08.933Z,19.90
2018-07-16T21:28:37.797Z,20.00
2018-07-16T21:31:07.333Z,20.00
2018-07-16T21:33:36.522Z,19.90
2018-07-16T21:36:05.957Z,19.80
2018-07-16T21:38:34.859Z,19.80
2018-07-16T21:41:03.794Z,19.70
2018-07-16T21:43:32.625Z,19.50
2018-07-16T21:46:01.522Z,19.40
2018-07-16T21:48:30.420Z,19.60
2018-07-16T21:50:59.280Z,19.60
2018-07-16T21:53:28.202Z,19.50
2018-07-16T21:55:57.337Z,19.40
2018-07-16T21:58:26.181Z,19.20
2018-07-16T22:00:55.077Z,19.00
2018-07-16T22:05:52.862Z,18.70
2018-07-16T22:08:21.701Z,18.70
2018-07-16T22:10:50.553Z,18.60
2018-07-16T22:13:19.438Z,18.50
2018-07-16T22:15:48.300Z,18.40
2018-07-16T22:18:17.121Z,18.40
2018-07-16T22:20:45.960Z,18.40
2018-07-16T22:23:14.838Z,18.30
2018-07-16T22:25:43.791Z,18.20
2018-07-16T22:28:12.684Z,18.10
2018-07-16T22:33:10.329Z,18.00
2018-07-16T22:35:39.243Z,17.90
2018-07-16T22:38:08.065Z,18.00
2018-07-16T22:40:36.912Z,18.00
2018-07-16T22:43:05.757Z,17.90
2018-07-16T22:45:34.618Z,17.80
2018-07-16T22:48:03.475Z,17.80
2018-07-16T22:50:32.337Z,17.80
2018-07-16T22:53:01.173Z,17.80
2018-07-16T22:55:30.032Z,17.70
2018-07-16T22:57:58.893Z,17.70
2018-07-16T23:00:27.749Z,17.80
2018-07-16T23:02:56.613Z,17.80
2018-07-16T23:05:25.444Z,17.80
2018-07-16T23:07:54.306Z,17.70
2018-07-16T23:10:23.205Z,17.80
2018-07-16T23:12:52.052Z,18.00
2018-07-16T23:15:20.886Z,17.90
2018-07-16T23:17:49.705Z,17.90
2018-07-16T23:20:18.592Z,17.90
2018-07-16T23:22:56.483Z,17.90
2018-07-16T23:25:25.431Z,17.80
2018-07-16T23:27:54.529Z,17.80
2018-07-16T23:30:23.400Z,17.70
2018-07-16T23:32:52.305Z,17.80
2018-07-16T23:35:21.177Z,17.80
2018-07-16T23:37:50.041Z,17.80
2018-07-16T23:40:18.888Z,17.70
2018-07-16T23:42:47.741Z,17.70
2018-07-16T23:45:16.637Z,17.70
2018-07-16T23:47:45.461Z,17.60
2018-07-16T23:50:14.329Z,17.60
2018-07-16T23:52:43.177Z,17.80
2018-07-16T23:55:12.002Z,18.00
2018-07-16T23:57:40.864Z,18.10
